Time;durP1;ratioP1;P1;durP2;ratioP2;P2;SDS_P1;SDS_P2;PMS_P1;PMS_P2;Temp;Humidity;BMP_temperature;BMP_pressure;BME280_temperature;BME280_humidity;BME280_pressure;Samples;Min_cycle;Max_cycle;Signal;HPM_P1;HPM_P2
2022/11/26 00:00:54;;;;;;;6.40;3.78;;;3.50;99.90;;;;;;5090399;28;20028;-74
2022/11/26 00:03:20;;;;;;;5.93;3.10;;;2.80;99.90;;;;;;5090233;28;20468;-74
2022/11/26 00:05:49;;;;;;;4.07;2.28;;;3.20;99.90;;;;;;5089986;28;20105;-74
2022/11/26 00:08:20;;;;;;;9.80;4.00;;;3.20;99.90;;;;;;5089194;28;20560;-74
2022/11/26 00:10:49;;;;;;;9.73;4.47;;;3.10;99.90;;;;;;5088077;28;20024;-74
2022/11/26 00:13:24;;;;;;;9.95;5.13;;;3.10;99.90;;;;;;5088830;28;20476;-74
2022/11/26 00:15:50;;;;;;;9.38;2.92;;;3.00;99.90;;;;;;5070571;28;20032;-73
2022/11/26 00:18:17;;;;;;;2.83;1.73;;;3.00;99.90;;;;;;5070372;28;20024;-74
2022/11/26 00:20:44;;;;;;;7.18;3.28;;;2.80;99.90;;;;;;5088498;28;20030;-73
2022/11/26 00:23:19;;;;;;;11.82;2.83;;;2.80;99.90;;;;;;5088667;28;20498;-74
2022/11/26 00:25:49;;;;;;;6.38;4.28;;;2.60;99.90;;;;;;5070186;28;20035;-73
2022/11/26 00:28:27;;;;;;;4.20;2.85;;;2.50;99.90;;;;;;5060993;28;20017;-74
2022/11/26 00:30:58;;;;;;;7.65;3.13;;;2.60;99.90;;;;;;5067346;28;20028;-74
2022/11/26 00:33:25;;;;;;;5.30;3.13;;;2.50;99.90;;;;;;5050338;28;20021;-74
2022/11/26 00:35:55;;;;;;;9.80;3.00;;;2.40;99.90;;;;;;5068735;28;20056;-74
2022/11/26 00:38:22;;;;;;;3.65;2.30;;;2.30;99.90;;;;;;5069164;28;20291;-74
2022/11/26 00:40:47;;;;;;;3.92;2.17;;;2.60;99.90;;;;;;5050062;28;20025;-73
2022/11/26 00:43:15;;;;;;;5.20;3.83;;;0.20;99.90;;;;;;5070127;28;20107;-74
2022/11/26 00:45:41;;;;;;;5.97;2.55;;;2.20;99.90;;;;;;5069306;28;20082;-76
2022/11/26 00:48:07;;;;;;;8.18;3.25;;;2.20;99.90;;;;;;5069726;28;20021;-76
2022/11/26 00:50:45;;;;;;;5.13;3.22;;;2.20;99.90;;;;;;5068973;28;20062;-75
2022/11/26 00:53:17;;;;;;;7.43;3.28;;;2.20;99.90;;;;;;5069338;28;20485;-75
2022/11/26 00:55:46;;;;;;;3.70;3.33;;;2.00;99.90;;;;;;5051190;28;20028;-74
2022/11/26 00:58:25;;;;;;;5.55;2.50;;;2.00;99.90;;;;;;5069543;28;20024;-74
2022/11/26 01:00:52;;;;;;;2.55;2.30;;;1.70;99.90;;;;;;5068578;28;20385;-74
2022/11/26 01:03:18;;;;;;;6.38;2.58;;;1.60;99.90;;;;;;5051282;28;20028;-75
2022/11/26 01:05:44;;;;;;;6.65;2.90;;;1.60;99.90;;;;;;5068521;28;20035;-75
2022/11/26 01:08:29;;;;;;;13.20;3.35;;;1.60;99.90;;;;;;5068682;28;20021;-74
2022/11/26 01:10:55;;;;;;;33.42;6.95;;;1.80;99.90;;;;;;5068581;28;20084;-74
2022/11/26 01:13:21;;;;;;;6.82;3.50;;;1.80;99.90;;;;;;5069251;28;20100;-75
2022/11/26 01:15:47;;;;;;;5.18;3.42;;;2.00;99.90;;;;;;5069107;28;20510;-75
2022/11/26 01:18:16;;;;;;;7.40;2.85;;;2.00;99.90;;;;;;5069202;28;20035;-75
2022/11/26 01:20:42;;;;;;;;;;;2.00;99.90;;;;;;5068533;28;20036;-75
2022/11/26 01:23:10;;;;;;;3.38;2.47;;;2.00;99.90;;;;;;5068692;28;19908;-74
2022/11/26 01:25:36;;;;;;;4.40;2.10;;;1.80;99.90;;;;;;5068557;28;20017;-74
2022/11/26 01:28:02;;;;;;;5.70;2.63;;;1.70;99.90;;;;;;5057704;28;20027;-74
2022/11/26 01:30:31;;;;;;;12.63;3.13;;;1.60;99.90;;;;;;5070267;28;20047;-75
2022/11/26 01:32:58;;;;;;;8.07;4.05;;;1.60;99.90;;;;;;5088668;28;20439;-73
2022/11/26 01:35:24;;;;;;;7.60;4.32;;;2.80;99.90;;;;;;5070534;28;20389;-75
2022/11/26 01:37:49;;;;;;;5.45;3.30;;;1.80;99.90;;;;;;5088438;28;20035;-75
2022/11/26 01:40:24;;;;;;;3.95;2.50;;;1.80;99.90;;;;;;5088562;28;20028;-74
2022/11/26 01:42:58;;;;;;;5.07;2.78;;;1.80;99.90;;;;;;5088200;28;20039;-74
2022/11/26 01:45:24;;;;;;;3.50;2.78;;;1.80;99.90;;;;;;5088296;28;20039;-75
2022/11/26 01:47:50;;;;;;;5.68;2.05;;;1.80;99.90;;;;;;5088402;28;20012;-74
2022/11/26 01:50:30;;;;;;;5.43;3.50;;;1.80;99.90;;;;;;5087616;28;20117;-75
2022/11/26 01:53:39;;;;;;;7.07;2.92;;;2.00;99.90;;;;;;5088276;28;20418;-74
2022/11/26 01:56:05;;;;;;;;;;;2.10;99.90;;;;;;4985825;28;20048;-74
2022/11/26 01:58:39;;;;;;;6.15;3.38;;;2.10;99.90;;;;;;4986168;28;19996;-74
2022/11/26 02:01:05;;;;;;;7.95;2.60;;;2.20;99.90;;;;;;5039154;28;20127;-75
2022/11/26 02:03:38;;;;;;;6.88;3.00;;;2.10;99.90;;;;;;5069844;28;20122;-74
2022/11/26 02:06:08;;;;;;;5.70;3.10;;;2.20;99.90;;;;;;5087339;28;20024;-75
2022/11/26 02:08:34;;;;;;;5.45;2.67;;;2.20;99.90;;;;;;5071318;28;20032;-74
2022/11/26 02:11:21;;;;;;;11.98;3.58;;;2.30;99.90;;;;;;5049561;28;20499;-74
2022/11/26 02:13:50;;;;;;;12.68;2.17;;;2.40;99.90;;;;;;5067610;28;20029;-74
2022/11/26 02:16:48;;;;;;;2.63;1.60;;;2.90;99.90;;;;;;5068101;28;20021;-74
2022/11/26 02:19:37;;;;;;;5.18;2.85;;;2.40;99.90;;;;;;5020710;28;20025;-74
2022/11/26 02:22:30;;;;;;;6.05;2.38;;;2.50;99.90;;;;;;5067889;28;20032;-75
2022/11/26 02:25:16;;;;;;;6.72;2.17;;;2.60;99.90;;;;;;5049145;28;20036;-74
2022/11/26 02:27:47;;;;;;;5.80;2.92;;;2.60;99.90;;;;;;5072013;28;20020;-75
2022/11/26 02:30:15;;;;;;;3.40;1.77;;;2.60;99.90;;;;;;5069685;28;20126;-75
2022/11/26 02:32:57;;;;;;;6.07;2.55;;;2.80;99.90;;;;;;5087419;28;20028;-74
2022/11/26 02:35:36;;;;;;;6.63;3.13;;;2.70;99.90;;;;;;5087417;28;20307;-74
2022/11/26 02:38:10;;;;;;;5.50;1.73;;;2.70;99.90;;;;;;5087789;28;20094;-74
2022/11/26 02:40:36;;;;;;;3.58;1.88;;;2.70;99.90;;;;;;5068875;28;20484;-74
2022/11/26 02:43:02;;;;;;;2.63;1.50;;;2.70;99.90;;;;;;5069186;28;20027;-74
2022/11/26 02:45:32;;;;;;;8.80;1.95;;;2.90;99.90;;;;;;5087476;28;20032;-74
2022/11/26 02:48:01;;;;;;;2.72;1.58;;;2.90;99.90;;;;;;5069371;28;20503;-74
2022/11/26 02:50:33;;;;;;;3.10;1.70;;;3.00;99.90;;;;;;5086880;28;20047;-74
2022/11/26 02:53:00;;;;;;;6.20;1.88;;;3.10;99.90;;;;;;5068905;28;20020;-74
2022/11/26 02:55:30;;;;;;;2.85;2.55;;;3.10;99.90;;;;;;5087035;28;20112;-74
2022/11/26 02:57:57;;;;;;;1.65;1.38;;;3.00;99.90;;;;;;5087361;28;20483;-74
2022/11/26 03:00:23;;;;;;;12.10;1.90;;;3.00;99.90;;;;;;5068512;28;20032;-75
2022/11/26 03:03:00;;;;;;;2.20;1.63;;;3.00;99.90;;;;;;5068817;28;20047;-74
2022/11/26 03:05:29;;;;;;;4.78;2.15;;;3.60;99.90;;;;;;5082327;28;20032;-74
2022/11/26 03:07:55;;;;;;;4.65;1.67;;;3.00;99.90;;;;;;5067361;28;20046;-74
2022/11/26 03:10:26;;;;;;;2.53;1.48;;;3.10;99.90;;;;;;5086953;28;20028;-75
2022/11/26 03:12:52;;;;;;;4.25;2.72;;;3.00;99.90;;;;;;5069790;28;20050;-75
2022/11/26 03:15:17;;;;;;;7.35;2.83;;;4.10;99.90;;;;;;5088333;28;20488;-75
2022/11/26 03:17:43;;;;;;;2.60;2.13;;;3.10;99.90;;;;;;5086552;28;20037;-75
2022/11/26 03:20:09;;;;;;;3.30;1.90;;;3.30;99.90;;;;;;5087080;28;20107;-75
2022/11/26 03:22:35;;;;;;;4.20;2.85;;;2.90;99.90;;;;;;5086672;28;20028;-75
2022/11/26 03:25:00;;;;;;;7.88;2.35;;;2.80;99.90;;;;;;5068578;28;20054;-75
2022/11/26 03:27:26;;;;;;;7.88;2.45;;;2.70;99.90;;;;;;5065876;28;20028;-75
2022/11/26 03:29:52;;;;;;;7.20;2.60;;;2.60;99.90;;;;;;5066096;28;20075;-75
2022/11/26 03:32:17;;;;;;;7.18;2.42;;;2.60;99.90;;;;;;5048515;28;20020;-75
2022/11/26 03:34:43;;;;;;;3.00;2.35;;;3.70;99.90;;;;;;5066575;28;20119;-75
2022/11/26 03:37:09;;;;;;;6.65;2.70;;;2.50;99.90;;;;;;5067029;28;20021;-75
2022/11/26 03:39:34;;;;;;;4.03;2.00;;;2.50;99.90;;;;;;5067825;28;20032;-76
2022/11/26 03:42:00;;;;;;;4.15;2.80;;;2.40;99.90;;;;;;5066401;28;20024;-75
2022/11/26 03:44:25;;;;;;;6.50;2.50;;;2.60;99.90;;;;;;5067047;28;20668;-76
2022/11/26 03:46:51;;;;;;;4.90;3.15;;;2.20;99.90;;;;;;5048258;28;20071;-75
2022/11/26 03:49:17;;;;;;;3.53;1.80;;;2.20;99.90;;;;;;5066163;28;20033;-74
2022/11/26 03:51:42;;;;;;;2.15;1.95;;;2.00;99.90;;;;;;5065991;28;20405;-75
2022/11/26 03:54:08;;;;;;;3.30;1.92;;;2.00;99.90;;;;;;5066495;28;20041;-75
2022/11/26 03:56:34;;;;;;;5.88;2.28;;;2.90;99.90;;;;;;5066327;28;20075;-75
2022/11/26 03:58:59;;;;;;;4.65;2.50;;;1.80;99.90;;;;;;5066050;28;20036;-76
2022/11/26 04:01:25;;;;;;;2.17;1.98;;;2.10;99.90;;;;;;5066129;28;20020;-75
2022/11/26 04:03:51;;;;;;;4.25;1.67;;;1.90;99.90;;;;;;5065946;28;20460;-75
2022/11/26 04:06:17;;;;;;;2.15;1.70;;;1.90;99.90;;;;;;5066022;28;20081;-75
2022/11/26 04:08:42;;;;;;;8.57;3.40;;;1.90;99.90;;;;;;5066142;28;20029;-74
2022/11/26 04:11:08;;;;;;;5.13;2.25;;;1.90;99.90;;;;;;5048418;28;20420;-75
2022/11/26 04:13:34;;;;;;;2.92;1.67;;;1.90;99.90;;;;;;5047389;28;20024;-75
2022/11/26 04:15:59;;;;;;;2.90;1.90;;;1.80;99.90;;;;;;5065927;28;20039;-75
2022/11/26 04:18:25;;;;;;;2.58;1.73;;;2.60;99.90;;;;;;5048055;28;20021;-75
2022/11/26 04:20:50;;;;;;;2.33;1.80;;;1.70;99.90;;;;;;5050437;28;20400;-76
2022/11/26 04:23:16;;;;;;;1.60;1.38;;;1.70;99.90;;;;;;5051858;28;20024;-76
2022/11/26 04:25:42;;;;;;;2.97;2.25;;;1.60;99.90;;;;;;5051597;28;20033;-74
2022/11/26 04:28:07;;;;;;;1.17;1.08;;;1.60;99.90;;;;;;5059544;28;20016;-76
2022/11/26 04:30:33;;;;;;;3.80;1.52;;;1.60;99.90;;;;;;5071840;28;20027;-76
2022/11/26 04:32:58;;;;;;;3.05;1.45;;;1.60;99.90;;;;;;5071721;28;20020;-75
2022/11/26 04:35:24;;;;;;;1.92;1.13;;;1.60;99.90;;;;;;5091344;28;20032;-74
2022/11/26 04:37:50;;;;;;;2.50;1.40;;;1.60;99.90;;;;;;5091458;28;20052;-74
2022/11/26 04:40:15;;;;;;;4.03;2.58;;;1.60;99.90;;;;;;5091848;28;20107;-74
2022/11/26 04:42:41;;;;;;;4.97;3.75;;;1.60;99.90;;;;;;5091695;28;20023;-74
2022/11/26 04:45:07;;;;;;;3.53;1.80;;;2.50;99.90;;;;;;5091207;28;20099;-74
2022/11/26 04:47:33;;;;;;;8.68;1.75;;;1.50;99.90;;;;;;5091560;28;20062;-74
2022/11/26 04:49:58;;;;;;;10.75;2.40;;;1.30;99.90;;;;;;5073929;28;20446;-74
2022/11/26 04:52:24;;;;;;;1.67;1.58;;;1.20;99.90;;;;;;5092278;28;20117;-74
2022/11/26 04:54:49;;;;;;;3.35;1.48;;;1.20;99.90;;;;;;5092196;28;20431;-74
2022/11/26 04:57:15;;;;;;;5.25;1.73;;;1.20;99.90;;;;;;5074243;28;20086;-74
2022/11/26 04:59:41;;;;;;;3.40;1.75;;;1.20;99.90;;;;;;5092335;28;20031;-75
2022/11/26 05:02:06;;;;;;;5.70;2.33;;;2.30;99.90;;;;;;5092825;28;20024;-74
2022/11/26 05:04:32;;;;;;;3.28;1.83;;;1.60;99.90;;;;;;5092034;28;20455;-74
2022/11/26 05:06:58;;;;;;;6.45;1.52;;;2.40;99.90;;;;;;5092230;28;20028;-74
2022/11/26 05:09:23;;;;;;;4.47;1.30;;;1.80;99.90;;;;;;5092153;28;20372;-74
2022/11/26 05:11:49;;;;;;;2.40;1.33;;;2.10;99.90;;;;;;5074244;28;20051;-74
2022/11/26 05:14:14;;;;;;;2.75;1.80;;;1.70;99.90;;;;;;5092044;28;20476;-74
2022/11/26 05:16:40;;;;;;;3.58;1.65;;;2.40;99.90;;;;;;5092196;28;20035;-74
2022/11/26 05:19:06;;;;;;;5.50;2.30;;;2.00;99.90;;;;;;5091732;28;20024;-74
2022/11/26 05:21:31;;;;;;;5.80;2.10;;;2.90;99.90;;;;;;5091856;28;20039;-75
2022/11/26 05:23:57;;;;;;;1.90;1.38;;;2.20;99.90;;;;;;5091774;28;20028;-74
2022/11/26 05:26:22;;;;;;;1.23;0.93;;;2.60;99.90;;;;;;5091903;28;20385;-74
2022/11/26 05:28:48;;;;;;;2.58;1.55;;;3.10;99.90;;;;;;5092210;28;20054;-74
2022/11/26 05:31:14;;;;;;;6.55;2.83;;;2.30;99.90;;;;;;5091238;28;20032;-74
2022/11/26 05:33:39;;;;;;;1.30;1.20;;;1.90;99.90;;;;;;5073573;28;20032;-74
2022/11/26 05:36:05;;;;;;;4.18;1.35;;;2.60;99.90;;;;;;5091813;28;20020;-75
2022/11/26 05:38:31;;;;;;;7.82;1.35;;;1.90;99.90;;;;;;5073378;28;20031;-74
2022/11/26 05:40:57;;;;;;;3.42;2.08;;;1.90;99.90;;;;;;5091683;28;20035;-75
2022/11/26 05:43:22;;;;;;;2.75;1.33;;;2.80;99.90;;;;;;5091494;28;20031;-74
2022/11/26 05:45:48;;;;;;;4.40;1.60;;;1.80;99.90;;;;;;5073465;28;20024;-74
2022/11/26 05:48:14;;;;;;;3.22;1.35;;;1.80;99.90;;;;;;5091669;28;20020;-74
2022/11/26 05:50:39;;;;;;;5.35;1.73;;;1.90;99.90;;;;;;5091477;28;20056;-76
2022/11/26 05:53:05;;;;;;;2.00;1.85;;;3.80;99.90;;;;;;5073408;28;20024;-75
2022/11/26 05:55:31;;;;;;;13.15;2.35;;;2.20;99.90;;;;;;5078566;28;20040;-74
2022/11/26 05:57:57;;;;;;;7.00;4.00;;;2.00;99.90;;;;;;5085831;28;20027;-74
2022/11/26 06:00:22;;;;;;;10.75;3.55;;;1.90;99.90;;;;;;5091110;28;20024;-74
2022/11/26 06:02:48;;;;;;;18.17;7.78;;;1.80;99.90;;;;;;5091185;28;20034;-74
2022/11/26 06:05:14;;;;;;;13.50;5.53;;;3.00;99.90;;;;;;5090728;28;20491;-74
2022/11/26 06:07:40;;;;;;;15.65;7.45;;;1.60;99.90;;;;;;5091114;28;20016;-75
2022/11/26 06:10:06;;;;;;;6.35;4.55;;;1.60;99.90;;;;;;5091034;28;20024;-76
2022/11/26 06:12:31;;;;;;;3.30;2.38;;;1.50;99.90;;;;;;5090664;28;20640;-74
2022/11/26 06:14:57;;;;;;;13.70;5.10;;;1.70;99.90;;;;;;5072626;28;20139;-74
2022/11/26 06:17:24;;;;;;;9.15;3.17;;;1.40;99.90;;;;;;5090562;28;20489;-75
2022/11/26 06:19:49;;;;;;;7.35;1.88;;;2.50;99.90;;;;;;5090565;28;20024;-74
2022/11/26 06:22:15;;;;;;;16.83;2.90;;;1.50;99.90;;;;;;5091060;28;20024;-75
2022/11/26 06:24:41;;;;;;;2.25;1.35;;;1.80;99.90;;;;;;5090590;28;20433;-74
2022/11/26 06:27:06;;;;;;;3.38;1.90;;;2.80;99.90;;;;;;5090722;28;20553;-74
2022/11/26 06:29:32;;;;;;;3.33;1.58;;;3.00;99.90;;;;;;5090520;28;20574;-74
2022/11/26 06:31:58;;;;;;;2.90;2.13;;;1.20;99.90;;;;;;5091490;28;20044;-74
2022/11/26 06:34:23;;;;;;;3.42;1.70;;;2.60;99.90;;;;;;5074204;28;20496;-74
2022/11/26 06:36:49;;;;;;;2.35;1.60;;;1.20;99.90;;;;;;5071649;28;20097;-74
2022/11/26 06:39:15;;;;;;;2.45;1.67;;;1.20;99.90;;;;;;5072912;28;20020;-74
2022/11/26 06:41:40;;;;;;;1.52;1.20;;;2.30;99.90;;;;;;5069961;28;20025;-76
2022/11/26 06:44:06;;;;;;;4.90;1.05;;;1.80;99.90;;;;;;5072437;28;20247;-74
2022/11/26 06:46:36;;;;;;;8.90;2.65;;;2.40;99.90;;;;;;5071483;28;20027;-75
2022/11/26 06:49:03;;;;;;;3.83;1.55;;;1.20;99.90;;;;;;5072118;28;20305;-75
2022/11/26 06:51:29;;;;;;;4.50;2.35;;;2.30;99.90;;;;;;5069867;28;20101;-74
2022/11/26 06:53:54;;;;;;;4.10;1.98;;;2.30;99.90;;;;;;5072743;28;20154;-74
2022/11/26 06:56:20;;;;;;;13.98;4.97;;;2.70;99.90;;;;;;5070494;28;20024;-75
2022/11/26 06:58:47;;;;;;;5.88;3.42;;;2.10;99.90;;;;;;5052018;28;20020;-74
2022/11/26 07:01:19;;;;;;;14.50;6.05;;;2.00;99.90;;;;;;5069476;28;20103;-74
2022/11/26 07:03:45;;;;;;;9.73;3.58;;;2.00;99.90;;;;;;5068443;28;20032;-74
2022/11/26 07:06:19;;;;;;;6.15;3.35;;;1.60;99.90;;;;;;5067837;28;20142;-74
2022/11/26 07:08:45;;;;;;;6.15;3.03;;;1.80;99.90;;;;;;5068277;28;20020;-74
2022/11/26 07:11:12;;;;;;;6.35;3.35;;;1.80;99.90;;;;;;5051275;28;20494;-74
2022/11/26 07:13:37;;;;;;;7.82;4.85;;;1.80;99.90;;;;;;5066454;28;20032;-74
2022/11/26 07:16:04;;;;;;;6.60;3.25;;;1.80;99.90;;;;;;5068262;28;20035;-74
2022/11/26 07:18:30;;;;;;;7.93;3.30;;;1.80;99.90;;;;;;5049945;28;20047;-74
2022/11/26 07:20:56;;;;;;;12.60;3.33;;;1.70;99.90;;;;;;5067773;28;20508;-73
2022/11/26 07:23:22;;;;;;;8.15;3.05;;;2.00;99.90;;;;;;5067933;28;20036;-74
2022/11/26 07:25:48;;;;;;;6.03;2.92;;;2.70;99.90;;;;;;5068066;28;20038;-74
2022/11/26 07:28:13;;;;;;;7.20;5.22;;;2.60;99.90;;;;;;5069490;28;20515;-74
2022/11/26 07:30:39;;;;;;;7.05;4.40;;;2.20;99.90;;;;;;5068130;28;20165;-74
2022/11/26 07:33:04;;;;;;;8.43;4.22;;;3.30;99.90;;;;;;5068877;28;20025;-74
2022/11/26 07:35:31;;;;;;;7.07;2.67;;;2.90;99.90;;;;;;5070689;28;20390;-75
2022/11/26 07:37:57;;;;;;;25.10;3.22;;;3.30;99.90;;;;;;5072632;28;20063;-75
2022/11/26 07:40:23;;;;;;;3.47;2.47;;;2.70;99.90;;;;;;5078619;28;20425;-75
2022/11/26 07:42:49;;;;;;;3.65;1.67;;;3.20;99.90;;;;;;5061141;28;20028;-75
2022/11/26 07:45:15;;;;;;;3.70;2.20;;;3.40;99.90;;;;;;5077358;28;20021;-75
2022/11/26 07:47:40;;;;;;;8.30;2.45;;;2.70;99.90;;;;;;5088254;28;20024;-74
2022/11/26 07:50:07;;;;;;;3.78;1.40;;;2.70;99.90;;;;;;5073591;28;20473;-74
2022/11/26 07:52:33;;;;;;;2.50;1.60;;;2.70;99.90;;;;;;5079232;28;20042;-75
2022/11/26 07:54:58;;;;;;;2.85;1.70;;;2.80;99.90;;;;;;5079699;28;20040;-75
2022/11/26 07:57:24;;;;;;;4.57;1.65;;;4.00;99.90;;;;;;5081759;28;20017;-75
2022/11/26 07:59:50;;;;;;;27.33;2.50;;;3.10;99.90;;;;;;5081895;28;20020;-75
2022/11/26 08:02:16;;;;;;;21.77;4.75;;;3.90;99.90;;;;;;5083589;28;20012;-75
2022/11/26 08:04:42;;;;;;;9.60;2.47;;;3.70;99.90;;;;;;5088606;28;20058;-74
2022/11/26 08:07:07;;;;;;;3.42;2.20;;;4.50;99.90;;;;;;5082510;28;20247;-73
2022/11/26 08:09:34;;;;;;;3.90;2.17;;;3.40;99.90;;;;;;5081949;28;20047;-75
2022/11/26 08:11:59;;;;;;;5.95;3.13;;;3.70;99.90;;;;;;5083362;28;20031;-74
2022/11/26 08:14:25;;;;;;;4.40;2.47;;;3.60;99.90;;;;;;5093625;28;20036;-74
2022/11/26 08:16:51;;;;;;;5.60;2.63;;;3.70;99.90;;;;;;5101921;28;20208;-74
2022/11/26 08:19:17;;;;;;;5.00;2.92;;;3.80;99.90;;;;;;5099472;28;20028;-73
2022/11/26 08:21:42;;;;;;;19.92;10.18;;;4.00;99.90;;;;;;5059450;28;20025;-73
2022/11/26 08:24:13;;;;;;;17.35;6.70;;;3.80;99.90;;;;;;5052645;28;20488;-76
2022/11/26 08:26:39;;;;;;;6.50;3.97;;;5.50;99.90;;;;;;5070979;28;20473;-76
2022/11/26 08:29:05;;;;;;;18.88;7.82;;;4.00;99.90;;;;;;5086204;28;20102;-76
2022/11/26 08:31:31;;;;;;;24.45;9.10;;;4.20;99.90;;;;;;5091242;28;20095;-75
2022/11/26 08:33:58;;;;;;;30.17;8.27;;;4.30;99.90;;;;;;5072525;28;20028;-76
2022/11/26 08:36:25;;;;;;;24.08;9.93;;;4.40;99.90;;;;;;5086194;28;20023;-75
2022/11/26 08:38:50;;;;;;;42.72;15.07;;;5.80;99.90;;;;;;5085792;28;20112;-76
2022/11/26 08:41:16;;;;;;;35.60;15.00;;;6.00;99.90;;;;;;5073733;28;20044;-75
2022/11/26 08:43:42;;;;;;;31.58;14.70;;;5.20;99.90;;;;;;5059007;28;20024;-76
2022/11/26 08:46:09;;;;;;;10.60;5.10;;;4.60;99.90;;;;;;5058394;28;20036;-76
2022/11/26 08:48:35;;;;;;;16.63;5.63;;;5.80;99.90;;;;;;5071113;28;20020;-76
2022/11/26 08:51:11;;;;;;;20.08;7.03;;;5.80;99.90;;;;;;5052758;28;20055;-76
2022/11/26 08:53:37;;;;;;;15.57;8.48;;;4.70;99.90;;;;;;5084071;28;20025;-77
2022/11/26 08:56:07;;;;;;;14.45;7.07;;;6.00;99.90;;;;;;5050516;28;20028;-79
2022/11/26 08:58:38;;;;;;;24.40;9.10;;;4.60;99.90;;;;;;5050542;28;20062;-83
2022/11/26 09:01:13;;;;;;;10.00;5.70;;;4.70;99.90;;;;;;5052712;28;20028;-77
2022/11/26 09:03:39;;;;;;;12.63;6.35;;;4.80;99.90;;;;;;5089048;28;20546;-75
2022/11/26 09:06:06;;;;;;;10.65;6.13;;;5.80;99.90;;;;;;5069655;28;20027;-76
2022/11/26 09:08:43;;;;;;;14.02;8.05;;;4.80;99.90;;;;;;5089590;28;20055;-76
2022/11/26 09:11:09;;;;;;;10.40;6.63;;;5.70;99.90;;;;;;5088894;28;20083;-76
2022/11/26 09:13:35;;;;;;;8.32;4.32;;;4.90;99.90;;;;;;5088854;28;20044;-75
2022/11/26 09:16:01;;;;;;;5.28;3.30;;;5.00;99.90;;;;;;5088898;28;20392;-76
2022/11/26 09:18:26;;;;;;;5.95;2.63;;;4.90;99.90;;;;;;5070353;28;20373;-76
2022/11/26 09:20:52;;;;;;;9.45;4.47;;;5.40;99.90;;;;;;5069532;28;20032;-76
2022/11/26 09:23:17;;;;;;;13.80;7.32;;;5.30;99.90;;;;;;5087552;28;20044;-76
2022/11/26 09:25:43;;;;;;;9.63;5.07;;;6.20;99.90;;;;;;5088668;28;20020;-76
2022/11/26 09:28:09;;;;;;;9.75;4.75;;;5.30;99.90;;;;;;5088431;28;20036;-76
2022/11/26 09:30:34;;;;;;;9.88;4.65;;;5.30;99.90;;;;;;5088839;28;20090;-75
2022/11/26 09:33:00;;;;;;;9.60;4.75;;;5.50;99.90;;;;;;5088144;28;20467;-76
2022/11/26 09:35:26;;;;;;;7.15;5.05;;;5.90;99.90;;;;;;5092284;28;20046;-76
2022/11/26 09:37:51;;;;;;;17.70;6.15;;;5.70;99.90;;;;;;5074216;28;20107;-75
2022/11/26 09:40:18;;;;;;;15.10;7.00;;;5.10;99.90;;;;;;5076833;28;20500;-78
2022/11/26 09:43:12;;;;;;;13.15;7.07;;;6.10;99.90;;;;;;5057246;28;20020;-76
2022/11/26 09:45:49;;;;;;;15.52;6.40;;;5.20;99.90;;;;;;5077524;28;20029;-77
2022/11/26 09:48:20;;;;;;;10.43;5.03;;;5.30;99.90;;;;;;5069528;28;20047;-76
2022/11/26 09:50:48;;;;;;;11.07;6.00;;;5.40;99.90;;;;;;5088473;28;20039;-77
2022/11/26 09:53:28;;;;;;;19.02;8.13;;;5.30;99.90;;;;;;5073539;28;20453;-75
2022/11/26 09:55:55;;;;;;;9.20;5.07;;;5.30;99.90;;;;;;5066228;28;20038;-76
2022/11/26 09:58:37;;;;;;;37.38;11.30;;;5.30;99.90;;;;;;5085422;28;20055;-76
2022/11/26 10:01:05;;;;;;;13.52;6.10;;;5.30;99.90;;;;;;5087866;28;20129;-76
2022/11/26 10:03:33;;;;;;;17.45;6.43;;;5.30;99.90;;;;;;5058625;28;20112;-77
2022/11/26 10:06:33;;;;;;;21.23;8.30;;;6.20;99.90;;;;;;5064155;28;20267;-76
2022/11/26 10:09:08;;;;;;;13.98;6.43;;;5.30;99.90;;;;;;5075324;28;20064;-76
2022/11/26 10:12:03;;;;;;;8.27;5.72;;;5.40;99.90;;;;;;5058441;28;20027;-76
2022/11/26 10:14:40;;;;;;;9.70;4.50;;;5.40;99.90;;;;;;5074696;28;20565;-76
2022/11/26 10:17:31;;;;;;;9.77;4.35;;;5.50;99.90;;;;;;5074763;28;20028;-75
2022/11/26 10:20:22;;;;;;;17.17;5.03;;;5.50;99.90;;;;;;5052061;28;20241;-75
2022/11/26 10:22:57;;;;;;;6.43;4.93;;;5.60;99.90;;;;;;5072180;28;20020;-77
2022/11/26 10:25:29;;;;;;;10.73;5.47;;;5.60;99.90;;;;;;5055268;28;20239;-77
2022/11/26 10:27:58;;;;;;;20.67;7.72;;;5.50;99.90;;;;;;5086231;28;20028;-77
2022/11/26 10:30:25;;;;;;;10.95;6.53;;;5.50;99.90;;;;;;5087169;28;20024;-77
2022/11/26 10:32:53;;;;;;;9.32;5.18;;;6.60;99.90;;;;;;5068929;28;20028;-76
2022/11/26 10:35:26;;;;;;;11.93;6.55;;;5.50;99.90;;;;;;5068457;28;20507;-76
2022/11/26 10:37:54;;;;;;;11.55;6.18;;;5.60;99.90;;;;;;5065511;28;20461;-82
2022/11/26 10:40:20;;;;;;;17.58;6.40;;;5.70;99.90;;;;;;5049709;28;20020;-77
2022/11/26 10:43:09;;;;;;;17.50;7.43;;;5.90;99.90;;;;;;5049095;28;20099;-76
2022/11/26 10:45:40;;;;;;;14.85;7.63;;;6.10;99.90;;;;;;5036365;28;20256;-77
2022/11/26 10:48:26;;;;;;;12.02;7.07;;;6.30;99.90;;;;;;5068565;28;20121;-76
2022/11/26 10:51:12;;;;;;;11.55;5.40;;;6.60;99.90;;;;;;5066965;28;20413;-76
2022/11/26 10:53:57;;;;;;;10.32;6.10;;;6.90;99.90;;;;;;5066820;28;20028;-76
2022/11/26 10:56:45;;;;;;;11.63;5.38;;;6.80;99.90;;;;;;5067820;28;20456;-76
2022/11/26 10:59:23;;;;;;;10.38;5.28;;;6.70;99.90;;;;;;5048561;28;20082;-75
2022/11/26 11:01:51;;;;;;;8.48;5.53;;;6.60;99.90;;;;;;5066943;28;20150;-76
2022/11/26 11:04:38;;;;;;;26.52;5.32;;;6.50;99.90;;;;;;5049072;28;20031;-76
2022/11/26 11:07:03;;;;;;;5.43;3.22;;;6.60;99.90;;;;;;5066607;28;20621;-75
2022/11/26 11:09:33;;;;;;;4.82;3.40;;;6.60;99.90;;;;;;5066500;28;20127;-76
2022/11/26 11:12:13;;;;;;;;;;;6.80;99.90;;;;;;5067403;28;20028;-76
2022/11/26 11:14:40;;;;;;;6.07;3.55;;;7.20;99.90;;;;;;5066996;28;20011;-75
2022/11/26 11:17:06;;;;;;;9.57;4.90;;;7.20;99.90;;;;;;5067426;28;20017;-76
2022/11/26 11:19:34;;;;;;;9.05;4.95;;;7.40;99.90;;;;;;5049010;28;20032;-75
2022/11/26 11:22:00;;;;;;;8.80;4.25;;;7.30;99.90;;;;;;5067689;28;20057;-76
2022/11/26 11:24:27;;;;;;;8.35;5.40;;;7.30;99.90;;;;;;5064157;28;20020;-77
2022/11/26 11:26:59;;;;;;;9.90;5.63;;;7.30;99.90;;;;;;5097567;28;20017;-78
2022/11/26 11:29:35;;;;;;;7.65;4.32;;;7.40;99.90;;;;;;5068554;28;20032;-76
2022/11/26 11:32:03;;;;;;;6.65;4.03;;;7.50;99.90;;;;;;5087768;28;20371;-76
2022/11/26 11:34:39;;;;;;;9.45;4.97;;;7.40;99.90;;;;;;5069979;28;20464;-77
2022/11/26 11:37:17;;;;;;;4.45;2.95;;;10.70;99.90;;;;;;5089437;28;20040;-76
2022/11/26 11:39:44;;;;;;;4.90;4.47;;;7.40;99.90;;;;;;5068993;28;20025;-77
2022/11/26 11:42:28;;;;;;;5.13;3.95;;;7.70;99.90;;;;;;5068775;28;20025;-77
2022/11/26 11:44:55;;;;;;;5.70;3.22;;;7.50;99.90;;;;;;5050611;28;20112;-75
2022/11/26 11:47:47;;;;;;;5.43;3.20;;;7.40;99.90;;;;;;5068890;28;20024;-76
2022/11/26 11:50:31;;;;;;;5.75;3.88;;;7.30;99.90;;;;;;5050350;28;20024;-76
2022/11/26 11:53:18;;;;;;;3.83;2.90;;;7.20;99.90;;;;;;5068833;28;20059;-75
2022/11/26 11:55:59;;;;;;;6.68;3.15;;;7.00;99.90;;;;;;5068080;28;20496;-76
2022/11/26 11:58:44;;;;;;;6.72;2.63;;;6.90;99.90;;;;;;5068137;28;20036;-75
2022/11/26 12:01:13;;;;;;;3.50;2.70;;;6.90;99.90;;;;;;5068206;28;20032;-75
2022/11/26 12:04:02;;;;;;;5.88;3.03;;;6.90;99.90;;;;;;5048356;28;20497;-76
2022/11/26 12:07:09;;;;;;;8.40;4.40;;;7.10;99.90;;;;;;5048159;28;20021;-76
2022/11/26 12:09:54;;;;;;;7.18;3.60;;;7.20;99.90;;;;;;5066270;28;20028;-75
2022/11/26 12:12:29;;;;;;;5.85;3.42;;;7.40;99.90;;;;;;5065861;28;20111;-75
2022/11/26 12:15:11;;;;;;;4.95;3.30;;;7.60;99.90;;;;;;5065885;28;20028;-74
2022/11/26 12:17:54;;;;;;;6.55;3.97;;;7.60;99.90;;;;;;5066415;28;20024;-75
2022/11/26 12:20:52;;;;;;;7.18;4.13;;;7.60;99.90;;;;;;5065830;28;20024;-76
2022/11/26 12:23:24;;;;;;;5.63;3.58;;;7.80;99.90;;;;;;5046811;28;20252;-75
2022/11/26 12:25:55;;;;;;;7.45;3.90;;;7.70;99.90;;;;;;5047759;28;20024;-76
2022/11/26 12:28:36;;;;;;;8.80;4.90;;;7.80;99.90;;;;;;5048069;28;20062;-76
2022/11/26 12:31:19;;;;;;;6.68;4.53;;;7.90;99.90;;;;;;5065680;28;20025;-76
2022/11/26 12:33:52;;;;;;;10.70;4.63;;;8.00;99.90;;;;;;5066256;28;20008;-76
2022/11/26 12:36:23;;;;;;;9.50;5.57;;;7.90;99.90;;;;;;5065917;28;20050;-76
2022/11/26 12:39:00;;;;;;;7.72;3.83;;;8.00;99.90;;;;;;5077220;28;20025;-76
2022/11/26 12:41:48;;;;;;;13.50;4.95;;;8.00;99.90;;;;;;5088374;28;20067;-76
2022/11/26 12:44:16;;;;;;;11.73;3.75;;;8.40;99.90;;;;;;5051855;28;20112;-77
2022/11/26 12:46:57;;;;;;;7.50;4.00;;;8.40;99.90;;;;;;5051424;28;20381;-76
2022/11/26 12:49:43;;;;;;;8.93;3.42;;;8.50;99.90;;;;;;5051411;28;20431;-76
2022/11/26 12:52:30;;;;;;;7.72;4.72;;;8.90;99.90;;;;;;5051621;28;20064;-76
2022/11/26 12:55:16;;;;;;;8.38;2.85;;;9.40;99.90;;;;;;5050575;28;20106;-76
2022/11/26 12:57:48;;;;;;;4.22;2.70;;;9.70;99.90;;;;;;5068959;28;20065;-75
2022/11/26 13:00:19;;;;;;;6.60;3.10;;;10.00;99.90;;;;;;5068800;28;20020;-76
2022/11/26 13:02:49;;;;;;;5.13;2.08;;;10.10;99.90;;;;;;5049388;28;20024;-75
2022/11/26 13:05:56;;;;;;;2.88;1.20;;;10.30;99.90;;;;;;5049452;28;20040;-76
2022/11/26 13:08:45;;;;;;;4.00;2.50;;;10.40;99.90;;;;;;5024572;28;20024;-76
2022/11/26 13:11:16;;;;;;;6.65;2.42;;;10.70;99.90;;;;;;5078775;28;20019;-76